Timeline UpdatesTrip UpdatesNews PostsPvt Posts♥♥Travel TipsAdmin PostsConv PostsFollowed PostsChat RequestsBlog PostsPNR Posts

Disclaimer
Search
 
 
Thu Nov 27, 2014 04:29:52 ISTHomeTrainsΣChainsAtlasPNRForumGalleryNewsFAQTripsMembersLoginFeedback
No Recent News for this Train
Other Trains in the News **new
Latest...
.
Sun Mar 09, 2014 (12:08PM)
⇐ Return Journey: Train# 12722

12721/Dakshin SF Express

Time-Table HAS CHANGED.
Sep 01 2014 (11:45PM)
Change Departure Station:
Change Arrival Station:
Post a Train Travel TipPost a Train Travel Tip **new
Post a Comment/Question/Picture/VideoPost a Comment/Question/Picture/Video
Pantry/Catering
✓ Pantry Car Avbl
✓ Catering Avbl
RSA - Rake Sharing
Rake/Coach Composition
From HYB to KZJ, 12721 Dakshin Exp; LOCO(LGD-WAP7)-SLRD-A2-B2-PC-S8-S9-S10-S11-S12-S13-S14-GS-GS-GS-GS-SLR; From KZJ to NZM, 12721 Dakshin Exp; LOCO(LGD-WAP7)-SLR-S4-S5-S6-B1-A1-SLRD-A2-B2-PC-S8-S9-S10-S11-S12-S13-S14-GS-GS-GS-GS-SLR
Loco
Loco In-Charge :- LGD WAP-7 / LGD WAP-4
News    PNR    Forum    Time-Table    Availability    Fare Chart    Map    Arr/Dep History    Trips    Gallery    ΣChains    X/O    Timeline    
Travel Time: 0h 20m    0 halts    Distance: 9 km    Avg Speed: 27 km/hr
Type: SuperFast
Zone: SCR/South Central
Departs @ 22:30 (Avg 2m late)
Platform# 4
SMTWTFS
Hyderabad Deccan Nampally/HYB 
Arrives @ 22:50 (Avg 11m late)
Platform# 1
SMTWTFS
Secunderabad Junction/SC 

0 halts. 6 intermediate Stations between Hyderabad Deccan Nampally and Secunderabad Junction

Show ALL intermediate Stations  Show Old Time-Table

#TrkCodeStation NameX/OArrivesAvgDepartsAvgHaltPFDay#KmSpeedElevZoneAddress
1/==/HYBHyderabad Deccan Nampally (6)»  -22:30+2410.028510mSCRHyderabad, Telangana
2/==/SCSecunderabad Junction (10)•X  22:50+1122:55+135m119.257539mSCRSecunderabad 500003, Telangana
3/==/BGBhongir (3)  23:30 23:44+2423:40 23:45+2410 1m1155.697455mSCRNalgonda Dist., Telangana
4/==/ZNJangaon (2)  00:03 00:08+2700:05 00:10+262m2292.948380mSCRWarangal Dist., Telangana
5/==/KZJKazipet Junction (3)X  01:10+501:30+2620m12140.993292mSCRWarangal Dist., Telangana
6/==/JMKTJammikunta (2)X  01:53+4301:55+442m12176.495236mSCRKarimnagar Dist., Telangana
7/==/PDPLPeddapalli Junction (2)O  02:20+4702:22+482m12215.950228mSCRKarimnagar Dist., Telangana
8/==/RDMRamagundam (3)O  02:43+4002:45+402m12233.563170mSCRKarimnagar Dist. Ph : 08728 - 255237, Telangana
9/==/MCIManchiryal (3)X  02:58+4403:00+442m12247.266159mSCRAdilabad Dist., Telangana
10/==/BPABellampalli (3)X  03:18+4503:20+442m12267.161205mSCRTel:.08735 223298, Telangana
11/==/SKZRSirpur Kaghaznagar (3)X  03:58+1904:00+182m12305.552181mSCRAdilabad Dist., Telangana
12/==/BPQBalharshah Junction (5)X  05:20+2305:30+2510m--2375.343188mCRBallarpur. Ph : 07172 - 240341, Maharashtra
13/==/CDChandrapur Maharashtra (3)  05:49+2905:50+301m--2389.063194mCRChandrapur 442401, Maharashtra
14/==/BUXBhandak (5)  06:13+2906:14+301m--2413.363207mCRChandrapur, Maharashtra
15/==/WRRWarora (2)X  06:35+2906:36+301m--2435.478214mCRWarora, Maharashtra
16/==/HGTHinganghat (3)  07:06+3007:07+321m--2474.544228mCRHinganghat, Maharashtra
17/==/SEGMSewagram Junction (5)  07:52+1907:53+211m32507.676279mCRWardha, Maharashtra
18/==/SNISindi (2)  08:16+2208:17+231m12536.977258mCRWardha, Maharashtra
19/==/AJNIAjni (3)  08:51+2308:52+251m12580.88310mCRNagpur 440003, Maharashtra
20/==/NGPNagpur Junction (8)X  09:15+1609:25+1810m12583.870314mCRNagpur 440001, Maharashtra
21/==/KATLKatol (2)  10:17+1910:18+201m--2644.760 CRKatol. District Nagpur, Maharashtra
22/==/NRKRNarkher Junction (4)X  10:43+1810:44+191m--2669.861411mCRDistrict Nagpur, Maharashtra
23/==/PARPandhurna (2)  11:02+1911:03+221m22688.261481mCRDistt: Chhindwara, Madhya Pradesh
24/==/MTYMultai (2)X  11:43+2511:45+252m12729.065762mCRMultai, Madhya Pradesh
25/==/AMLAAmla Junction (5)O  12:06+2212:08+232m--2751.872733mCRAmla Distt. Betul, Madhya Pradesh
26/==/BZUBetul (3)X  12:27+2412:29+262m--2774.753644mCRBetul, Madhya Pradesh
27/==/GDYAGhoradongri (3)X  13:10+2513:12+252m12810.645 CRBetul, Madhya Pradesh
28/==/ETItarsi Junction (7)  14:45+714:55+1110m12881.060329mWCRItarsi 461111, Madhya Pradesh
29/==/HBDHoshangabad (2)O  15:14 15:13+1515:15+151 2m--2899.164308mWCRHoshangabad, Madhya Pradesh
30/==/HBJBhopal HabibGanj (5)X  16:19 16:18+3216:20+331 2m32966.515496mWCRHabibGanj, Madhya Pradesh
31/==/BPLBhopal Junction (6)X  16:45+2316:50+265m22972.8100497mWCRBhopal, Madhya Pradesh
32/==/BHSVidisha (3)X  17:23 17:22+3717:24+371 2m121026.381 WCRVidisha, Madhya Pradesh
33/==/BAQGanj Basoda (4)XO  17:54 17:53+3917:55+391 2m121065.678 WCRVidisha, Madhya Pradesh
34/==/MABAMandi Bamora (3)X  18:18 18:17+4218:19+421 2m121094.125413mWCRState Highway 14, Madhya Pradesh
35/==/BINABina Junction (5)X  19:00+2119:05+225m321111.373414mWCRJn Pt - KATNI/GUNA/ BPL/JHS, Madhya Pradesh
36/==/LARLalitpur (3)X  19:58 19:57+3019:59+301 2m321174.290373mNCRLalitpur, Uttar Pradesh
37/==/BABBabina (3)X  20:43 20:42+3520:44+351 2m221239.142285mNCRBabina, Uttar Pradesh
38/==/JHSJhansi Junction (7)X  21:18 21:20+3521:28 21:30+3710m421264.675259mNCRJhansi, Uttar Pradesh
39/==/DAADatia (2)XO  21:51 21:50+4521:52+461 2m--21289.679264mNCRDatia, Madhya Pradesh
40/==/GWLGwalior Junction (4)  22:47+5022:52+505m221362.393214mNCRGwalior, Madhya Pradesh
41/==/MRAMorena (3)  23:18 23:17+5923:19+591 2m221400.855176mNCRMorena, Madhya Pradesh
42/==/AGCAgra Cantt. (6)X  00:45+4900:50+525m231480.375174mNCRAgra, Uttar Pradesh
43/==/MTJMathura Junction (10)X  01:33+1:0401:38+1:045m231534.063179mNCRMathura, Uttar Pradesh
44/==/BVHBallabgarh (5)  03:19 03:18+4003:20+411 2m331639.144203mNRFaridabad, Haryana
45/==/FDBFaridabad (4)  03:30 03:31+4003:33+393 2m231647.139206mNRold Faridabad, Haryana
46/==/NZMDelhi Hazrat Nizamuddin (7)  04:00 04:05+34-631667.9-209mNRNew Delhi 110013, Delhi NCT
Scroll to Top
Scroll to Bottom